createdAt,value
2019-05-11T05:42:25.333Z,97036.43
2019-05-11T06:05:15.632Z,97010.89
2019-05-11T06:21:30.467Z,97011.76
2019-05-11T06:24:10.651Z,97017.45
2019-05-11T06:26:49.220Z,97013.47
2019-05-11T06:36:23.575Z,97016.44
2019-05-11T06:38:56.427Z,97017.22
2019-05-11T06:41:30.607Z,97018.50
2019-05-11T06:44:04.855Z,97014.39
2019-05-11T06:46:38.586Z,97013.73
2019-05-11T06:49:16.641Z,97011.81
2019-05-11T06:51:52.529Z,97009.17
2019-05-11T06:54:26.405Z,97022.70
2019-05-11T06:57:16.389Z,97017.27
2019-05-11T06:59:51.390Z,97018.01
2019-05-11T07:02:24.802Z,97014.64
2019-05-11T07:04:58.775Z,97022.52
2019-05-11T07:07:48.056Z,97036.23
2019-05-11T07:10:21.393Z,97034.13
2019-05-11T07:12:54.751Z,97031.88
2019-05-11T07:15:27.878Z,97025.62
2019-05-11T07:18:02.058Z,97029.51
2019-05-11T07:20:49.571Z,97031.28
2019-05-11T07:23:10.611Z,97039.80
2019-05-11T07:25:48.539Z,97035.13
2019-05-11T07:28:25.702Z,97037.03
2019-05-11T07:30:59.626Z,97038.34
2019-05-11T07:33:32.612Z,97035.66
2019-05-11T07:38:59.277Z,97027.27
2019-05-11T07:41:34.813Z,97029.28
2019-05-11T07:44:10.009Z,97023.30
2019-05-11T07:46:55.391Z,97017.71
2019-05-11T07:49:29.326Z,97024.08
2019-05-11T07:52:02.968Z,97023.20
2019-05-11T07:54:57.972Z,97024.88
2019-05-11T07:57:38.729Z,97013.59
2019-05-11T08:00:12.019Z,97027.97
2019-05-11T08:02:50.467Z,97020.22
2019-05-11T08:05:23.800Z,97025.55
2019-05-11T08:07:59.295Z,97021.98
2019-05-11T08:10:34.316Z,97027.13
2019-05-11T08:13:11.230Z,97022.45
2019-05-11T08:15:44.208Z,97023.75
2019-05-11T08:18:18.906Z,97025.70
2019-05-11T08:20:53.841Z,97024.88
2019-05-11T08:23:28.524Z,97025.22
2019-05-11T08:26:08.439Z,97031.05
2019-05-11T08:28:48.619Z,97039.80
2019-05-11T08:31:22.119Z,97031.05
2019-05-11T08:33:58.377Z,97034.91
2019-05-11T08:36:31.326Z,97035.55
2019-05-11T08:39:07.748Z,97023.96
2019-05-11T08:41:41.326Z,97026.33
2019-05-11T08:44:14.409Z,97030.96
2019-05-11T08:46:48.157Z,97030.17
2019-05-11T08:49:21.391Z,97029.91
2019-05-11T08:56:42.349Z,97031.59
2019-05-11T08:59:18.803Z,97032.78
2019-05-11T09:01:58.771Z,97033.41
2019-05-11T09:04:41.807Z,97036.48
2019-05-11T09:07:13.709Z,97039.41
2019-05-11T09:09:48.389Z,97039.36
2019-05-11T09:12:21.153Z,97035.56
2019-05-11T09:14:59.362Z,97038.44
2019-05-11T09:17:37.974Z,97032.60
2019-05-11T09:20:11.137Z,97026.84
2019-05-11T09:22:53.797Z,97021.20
2019-05-11T09:25:30.126Z,97011.60
2019-05-11T09:28:03.238Z,97007.77
2019-05-11T09:30:51.382Z,97005.18
2019-05-11T09:33:28.151Z,97016.97
2019-05-11T09:36:00.757Z,97009.37
2019-05-11T09:38:38.171Z,97002.56
2019-05-11T09:41:12.247Z,97005.05
2019-05-11T09:43:45.076Z,97005.90
2019-05-11T09:46:18.868Z,97006.91
2019-05-11T09:48:51.929Z,97003.86
2019-05-11T09:51:25.459Z,97002.41
2019-05-11T09:54:01.102Z,97004.95
2019-05-11T09:56:34.970Z,97010.76
2019-05-11T09:59:08.958Z,97018.77
2019-05-11T10:01:42.067Z,97014.65
2019-05-11T10:04:15.115Z,97012.91
2019-05-11T10:06:48.197Z,97007.06
2019-05-11T10:09:21.505Z,97010.47
2019-05-11T10:11:54.520Z,97012.90
2019-05-11T10:14:29.860Z,97024.82
2019-05-11T10:17:05.118Z,97032.50
2019-05-11T10:19:49.524Z,97042.59
2019-05-11T10:22:39.962Z,97065.16
2019-05-11T10:25:25.749Z,97068.91
2019-05-11T10:28:22.031Z,97087.70
2019-05-11T10:30:53.555Z,97100.22
2019-05-11T10:33:30.780Z,97107.63
2019-05-11T10:36:04.832Z,97103.88
2019-05-11T10:38:38.500Z,97098.05
2019-05-11T10:41:12.627Z,97086.09
2019-05-11T10:43:45.293Z,97073.53
2019-05-11T10:46:23.359Z,97075.23
2019-05-11T10:48:58.528Z,97077.83
2019-05-11T10:51:33.938Z,97070.32
2019-05-11T10:54:08.621Z,97060.25
2019-05-11T10:56:41.393Z,97055.22
2019-05-11T10:59:15.677Z,97049.09
2019-05-11T11:01:49.048Z,97054.48
2019-05-11T11:04:22.054Z,97057.16
2019-05-11T11:06:54.826Z,97053.05
2019-05-11T11:09:28.357Z,97044.69
2019-05-11T11:12:14.008Z,97057.58
2019-05-11T11:14:52.085Z,97054.64
2019-05-11T11:17:29.721Z,97056.11
2019-05-11T11:20:14.791Z,97059.68
2019-05-11T11:23:02.566Z,97059.31
2019-05-11T11:25:48.173Z,97066.01
2019-05-11T11:28:24.853Z,97070.64
2019-05-11T11:31:11.482Z,97069.48
2019-05-11T11:33:44.834Z,97059.30
2019-05-11T11:36:18.226Z,97054.92
2019-05-11T11:38:50.865Z,97058.78
2019-05-11T11:41:25.145Z,97066.48
2019-05-11T11:43:58.711Z,97060.38
2019-05-11T11:46:50.383Z,97053.65
2019-05-11T11:49:19.076Z,97049.32
2019-05-11T11:52:01.703Z,97046.78
2019-05-11T11:54:42.453Z,97033.51
2019-05-11T11:57:15.255Z,97032.92
2019-05-11T11:59:49.020Z,97031.69
2019-05-11T12:02:28.049Z,97038.56
2019-05-11T12:05:08.807Z,97035.50
2019-05-11T12:07:44.328Z,97030.66
2019-05-11T12:10:19.489Z,97029.76
2019-05-11T12:12:53.952Z,97023.98
2019-05-11T12:15:32.382Z,97020.37
2019-05-11T12:18:05.488Z,97007.70
2019-05-11T12:20:39.126Z,97004.55
2019-05-11T12:23:11.873Z,97009.33
2019-05-11T12:25:48.618Z,97013.71
2019-05-11T12:28:21.156Z,97018.84
2019-05-11T12:30:55.574Z,97028.89
2019-05-11T12:33:32.131Z,97035.75
2019-05-11T12:36:09.645Z,97039.57
2019-05-11T12:38:43.346Z,97048.87
2019-05-11T12:41:19.215Z,97043.80
2019-05-11T12:43:57.670Z,97046.15
2019-05-11T12:46:37.448Z,97041.95
2019-05-11T12:49:18.646Z,97043.80
2019-05-11T12:51:58.393Z,97050.84
2019-05-11T12:54:33.910Z,97052.19
2019-05-11T12:57:07.883Z,97050.38
2019-05-11T13:00:00.516Z,97048.94
2019-05-11T13:02:38.577Z,97052.81
2019-05-11T13:05:17.827Z,97068.31
2019-05-11T13:07:58.546Z,97072.77
2019-05-11T13:10:33.598Z,97081.06
2019-05-11T13:13:09.104Z,97083.64
2019-05-11T13:15:45.132Z,97086.95
2019-05-11T13:25:35.205Z,97098.02
2019-05-11T13:28:12.267Z,97096.33
2019-05-11T13:30:48.796Z,97095.70
2019-05-11T13:33:31.352Z,97098.67
2019-05-11T13:36:28.704Z,97101.55
2019-05-11T13:39:08.890Z,97098.21
2019-05-11T13:41:44.355Z,97091.53
2019-05-11T13:44:19.171Z,97075.36
2019-05-11T13:46:58.778Z,97072.09
2019-05-11T13:49:32.693Z,97072.70
2019-05-11T13:52:14.744Z,97061.84
2019-05-11T13:54:55.142Z,97054.54
2019-05-11T13:57:58.190Z,97051.50
2019-05-11T14:00:38.024Z,97055.00
2019-05-11T14:03:28.581Z,97039.41
2019-05-11T14:06:10.134Z,97027.87
2019-05-11T14:09:21.874Z,97037.03
2019-05-11T14:12:15.032Z,97046.06
2019-05-11T15:01:33.939Z,97199.72
2019-05-11T15:05:10.549Z,97202.97
2019-05-11T15:08:44.979Z,97201.70
2019-05-11T15:11:28.061Z,97210.91
2019-05-11T15:17:49.657Z,97238.98
2019-05-11T15:24:38.553Z,97252.27
2019-05-11T16:13:31.512Z,97297.75
2019-05-11T16:16:04.891Z,97298.23
2019-05-11T16:18:45.854Z,97297.44
2019-05-11T16:21:22.199Z,97298.72
2019-05-11T16:24:03.637Z,97301.48
2019-05-11T16:31:21.033Z,97318.95
2019-05-11T16:37:59.185Z,97331.36
2019-05-11T16:43:47.985Z,97329.88
2019-05-11T16:46:22.475Z,97331.97
2019-05-11T17:58:26.239Z,97413.41
2019-05-11T18:28:58.622Z,97456.84
2019-05-11T18:31:44.639Z,97473.79
2019-05-11T18:39:05.138Z,97479.99
2019-05-11T18:41:45.415Z,97486.61
2019-05-11T18:55:01.908Z,97531.69
2019-05-11T19:02:20.525Z,97541.99
2019-05-11T19:05:01.657Z,97547.41
2019-05-11T19:10:51.779Z,97555.66
2019-05-11T19:14:08.472Z,97562.39
2019-05-11T19:17:45.057Z,97569.45
